Time;durP1;ratioP1;P1;durP2;ratioP2;P2;SDS_P1;SDS_P2;PMS_P1;PMS_P2;Temp;Humidity;BMP_temperature;BMP_pressure;BME280_temperature;BME280_humidity;BME280_pressure;Samples;Min_cycle;Max_cycle;Signal;HPM_P1;HPM_P2
2021/01/29 00:01:03;;;;;;;4.62;2.40;;;;;;;-2.75;80.36;97711.94;1650527;87;21597;-62
2021/01/29 00:03:30;;;;;;;4.28;2.35;;;;;;;-2.76;80.17;97720.97;1643765;85;21178;-62
2021/01/29 00:06:02;;;;;;;4.53;2.55;;;;;;;-2.83;80.07;97720.30;1661650;85;21198;-61
2021/01/29 00:08:28;;;;;;;4.53;2.33;;;;;;;-2.86;79.96;97718.10;1652595;85;21173;-62
2021/01/29 00:10:56;;;;;;;5.60;2.20;;;;;;;-2.91;79.83;97720.68;1661957;84;21351;-61
2021/01/29 00:13:25;;;;;;;6.05;2.22;;;;;;;-2.87;79.90;97723.69;1675763;85;21343;-61
2021/01/29 00:15:52;;;;;;;4.00;2.27;;;;;;;-2.91;79.93;97714.02;1671216;85;21197;-61
2021/01/29 00:18:21;;;;;;;3.80;1.82;;;;;;;-2.91;79.68;97724.67;1650597;87;21207;-59
2021/01/29 00:20:49;;;;;;;3.77;2.08;;;;;;;-2.92;79.53;97711.06;1669912;85;21178;-59
2021/01/29 00:23:17;;;;;;;5.58;2.17;;;;;;;-2.94;79.52;97703.03;1666293;85;21196;-59
2021/01/29 00:25:53;;;;;;;3.58;1.98;;;;;;;-2.96;79.38;97709.09;1674829;85;21319;-59
2021/01/29 00:28:21;;;;;;;5.33;2.15;;;;;;;-2.99;79.57;97713.05;1676957;85;21235;-59
2021/01/29 00:30:50;;;;;;;5.37;1.95;;;;;;;-3.02;79.82;97709.01;1673726;85;21166;-59
2021/01/29 00:33:21;;;;;;;4.22;1.70;;;;;;;-3.09;80.33;97700.86;1675900;85;21369;-59
2021/01/29 00:35:49;;;;;;;5.35;1.82;;;;;;;-3.10;80.30;97703.22;1669891;85;21204;-59
2021/01/29 00:38:17;;;;;;;4.60;1.90;;;;;;;-3.17;80.39;97698.55;1632678;86;21627;-59
2021/01/29 00:40:45;;;;;;;2.95;1.62;;;;;;;-3.17;80.29;97698.55;1647025;86;21637;-58
2021/01/29 00:43:12;;;;;;;4.37;1.90;;;;;;;-3.20;79.78;97700.34;1693912;84;21270;-59
2021/01/29 00:45:40;;;;;;;5.10;1.90;;;;;;;-3.17;79.39;97694.55;1699366;84;21589;-59
2021/01/29 00:48:09;;;;;;;3.87;1.50;;;;;;;-3.23;79.03;97696.83;1696476;84;21177;-61
2021/01/29 00:50:37;;;;;;;2.77;1.40;;;;;;;-3.22;78.74;97697.09;1635186;88;21198;-59
2021/01/29 00:53:06;;;;;;;3.77;1.27;;;;;;;-3.28;78.10;97691.37;1699315;84;21605;-60
2021/01/29 00:55:33;;;;;;;2.98;1.27;;;;;;;-3.28;77.94;97693.52;1708976;84;21676;-60
2021/01/29 00:58:02;;;;;;;4.03;1.92;;;;;;;-3.36;78.14;97691.72;1690392;84;21614;-59
2021/01/29 01:00:41;;;;;;;3.52;1.42;;;;;;;-3.35;78.21;97685.38;1805451;79;22891;-59
2021/01/29 01:03:10;;;;;;;4.87;1.42;;;;;;;-3.39;78.15;97692.19;1762743;80;21152;-60
2021/01/29 01:05:42;;;;;;;3.77;1.32;;;;;;;-3.45;78.15;97682.48;1775871;81;21156;-60
2021/01/29 01:08:07;;;;;;;3.47;1.40;;;;;;;-3.42;77.98;97686.02;1764370;80;21935;-60
2021/01/29 01:10:45;;;;;;;3.02;1.42;;;;;;;-3.39;77.63;97678.89;1807861;79;22567;-61
2021/01/29 01:13:22;;;;;;;3.63;1.40;;;;;;;-3.42;76.63;97685.50;1766129;80;21142;-61
2021/01/29 01:15:54;;;;;;;3.70;1.60;;;;;;;-3.46;75.78;97680.86;1727137;82;21268;-61
2021/01/29 01:18:21;;;;;;;3.95;1.60;;;;;;;-3.42;75.81;97679.36;1720346;83;21189;-61
2021/01/29 01:21:04;;;;;;;3.85;1.67;;;;;;;-3.36;75.29;97683.23;1760340;79;22680;-58
2021/01/29 01:23:32;;;;;;;4.47;1.40;;;;;;;-3.51;75.18;97653.65;1729142;82;21658;-59
2021/01/29 01:25:59;;;;;;;4.20;1.27;;;;;;;-3.38;74.77;97677.86;1695963;83;21133;-58
2021/01/29 01:28:38;;;;;;;2.80;1.20;;;;;;;-3.37;73.69;97675.50;1768531;79;22874;-61
2021/01/29 01:33:26;;;;;;;2.62;1.00;;;;;;;-3.42;73.11;97664.73;1753558;79;22391;-61
2021/01/29 01:36:05;;;;;;;3.62;1.20;;;;;;;-3.55;73.23;97671.11;1697656;83;21299;-61
2021/01/29 01:38:34;;;;;;;2.85;1.40;;;;;;;-3.63;73.12;97665.62;1706601;83;21322;-60
2021/01/29 01:41:03;;;;;;;2.80;1.30;;;;;;;-3.67;73.13;97669.77;1718158;83;21145;-60
2021/01/29 01:43:35;;;;;;;3.72;1.60;;;;;;;-3.69;73.18;97680.36;1716198;82;21161;-61
2021/01/29 01:46:21;;;;;;;3.45;1.70;;;;;;;-3.76;73.46;97675.67;1717613;83;21177;-61
2021/01/29 01:49:12;;;;;;;3.90;1.40;;;;;;;-3.83;73.37;97674.46;1713035;83;21389;-61
2021/01/29 01:51:56;;;;;;;4.05;1.50;;;;;;;-3.84;73.40;97670.17;1701218;83;21619;-62
2021/01/29 01:54:36;;;;;;;5.83;1.77;;;;;;;-3.87;73.38;97673.81;1709905;83;21264;-61
2021/01/29 01:57:04;;;;;;;5.33;1.72;;;;;;;-3.92;73.31;97669.17;1693817;85;21193;-61
2021/01/29 01:59:47;;;;;;;6.90;2.80;;;;;;;-3.86;73.60;97667.47;1751814;79;22850;-60
2021/01/29 02:02:25;;;;;;;10.40;5.83;;;;;;;-3.93;73.54;97674.19;1700803;83;21719;-61
2021/01/29 02:05:29;;;;;;;10.15;5.22;;;;;;;-3.97;73.57;97666.92;1865063;75;22593;-59
2021/01/29 02:08:12;;;;;;;6.62;3.47;;;;;;;-3.96;73.64;97667.20;1770759;77;21302;-60
2021/01/29 02:10:58;;;;;;;;;;;;;;;-4.00;73.69;97668.72;1860884;77;21754;-61
2021/01/29 02:13:33;;;;;;;4.85;2.47;;;;;;;-4.00;73.65;97659.42;1849531;77;20165;-61
2021/01/29 02:16:21;;;;;;;4.08;2.12;;;;;;;-4.04;73.99;97655.86;1778619;79;23475;-60
2021/01/29 02:19:17;;;;;;;6.42;3.05;;;;;;;-4.08;73.92;97655.24;1734631;82;21190;-60
2021/01/29 02:22:18;;;;;;;6.67;3.00;;;;;;;-4.09;73.94;97650.44;1711111;83;21614;-60
2021/01/29 02:25:38;;;;;;;4.85;2.10;;;;;;;-4.13;73.88;97651.12;1706437;82;21181;-60
2021/01/29 02:28:19;;;;;;;9.50;4.70;;;;;;;-4.17;74.11;97644.13;1677954;82;21157;-59
2021/01/29 02:31:48;;;;;;;5.95;3.52;;;;;;;-4.19;73.65;97638.76;1810563;79;22967;-59
2021/01/29 02:34:57;;;;;;;4.05;1.90;;;;;;;-4.29;73.67;97647.81;1753892;81;21226;-61
2021/01/29 02:38:09;;;;;;;5.20;2.12;;;;;;;-4.36;73.63;97644.45;1712490;81;21153;-61
2021/01/29 02:41:08;;;;;;;8.45;2.00;;;;;;;-4.50;73.62;97635.87;1702549;83;21211;-59
2021/01/29 02:44:05;;;;;;;5.97;2.30;;;;;;;-4.59;73.83;97634.04;1717907;82;21185;-59
2021/01/29 02:47:03;;;;;;;5.00;1.57;;;;;;;-4.68;73.94;97623.46;1697447;83;21148;-61
2021/01/29 02:50:23;;;;;;;3.55;1.50;;;;;;;-4.74;73.96;97620.36;1721633;82;21188;-61
2021/01/29 02:53:11;;;;;;;4.37;1.80;;;;;;;-4.88;74.06;97616.27;1712788;83;21178;-61
2021/01/29 02:56:24;;;;;;;4.72;2.02;;;;;;;-5.02;74.30;97615.64;1782368;78;22678;-61
2021/01/29 02:59:02;;;;;;;6.17;2.35;;;;;;;-5.12;74.29;97614.55;1708550;81;21133;-62
2021/01/29 03:02:01;;;;;;;6.22;2.42;;;;;;;-5.24;74.37;97611.02;1741779;81;21638;-60
2021/01/29 03:05:10;;;;;;;6.58;2.40;;;;;;;-5.38;74.75;97602.41;1759435;79;23389;-59
2021/01/29 03:07:48;;;;;;;4.00;1.65;;;;;;;-5.45;74.72;97598.22;1722857;83;21632;-61
2021/01/29 03:11:06;;;;;;;5.62;1.70;;;;;;;-5.52;75.02;97602.27;1676478;85;21346;-61
2021/01/29 03:14:24;;;;;;;3.67;1.67;;;;;;;-5.63;75.26;97605.14;1676061;85;21222;-61
2021/01/29 03:17:25;;;;;;;4.83;1.70;;;;;;;-5.74;75.65;97609.06;1724773;82;21581;-61
2021/01/29 03:20:34;;;;;;;4.58;1.60;;;;;;;-5.77;75.89;97602.34;1747732;82;21280;-61
2021/01/29 03:23:42;;;;;;;3.72;1.90;;;;;;;-5.84;76.23;97605.58;1671268;85;21177;-61
2021/01/29 03:26:32;;;;;;;3.80;1.77;;;;;;;-5.86;76.44;97606.86;1708626;84;21610;-61
2021/01/29 03:29:19;;;;;;;3.70;1.70;;;;;;;-5.92;76.60;97588.69;1689932;84;21226;-61
2021/01/29 03:32:05;;;;;;;3.30;1.57;;;;;;;-5.92;76.87;97590.52;1697701;84;21169;-61
2021/01/29 03:35:08;;;;;;;3.70;1.40;;;;;;;-5.89;76.76;97592.22;1705111;84;21219;-60
2021/01/29 03:38:12;;;;;;;3.65;1.47;;;;;;;-5.93;76.85;97592.36;1691342;84;21592;-60
2021/01/29 03:41:22;;;;;;;5.15;1.98;;;;;;;-5.97;76.94;97587.20;1679032;84;21201;-60
2021/01/29 03:44:20;;;;;;;4.47;2.00;;;;;;;-5.95;76.92;97581.69;1756240;79;23187;-60
2021/01/29 03:47:22;;;;;;;5.70;2.42;;;;;;;-6.00;76.80;97591.61;1640789;85;21646;-60
2021/01/29 03:50:22;;;;;;;4.45;2.20;;;;;;;-6.06;76.95;97584.55;1645857;85;21752;-60
2021/01/29 03:53:41;;;;;;;4.62;2.00;;;;;;;-6.07;76.90;97590.86;1676254;85;21174;-60
2021/01/29 03:56:42;;;;;;;4.50;2.30;;;;;;;-6.16;76.95;97587.67;1677717;85;21305;-60
2021/01/29 03:59:45;;;;;;;3.83;2.17;;;;;;;-6.20;77.15;97589.67;1662291;85;21874;-61
2021/01/29 04:03:02;;;;;;;4.78;2.37;;;;;;;-6.28;76.98;97594.72;1663617;85;21222;-61
2021/01/29 04:06:08;;;;;;;5.22;2.40;;;;;;;-6.34;77.27;97586.30;1588282;90;21204;-60
2021/01/29 04:09:05;;;;;;;5.80;2.55;;;;;;;-6.39;77.34;97576.08;1792733;79;22649;-59
2021/01/29 04:11:55;;;;;;;5.17;2.70;;;;;;;-6.47;77.36;97571.05;1788351;80;21169;-62
2021/01/29 04:14:47;;;;;;;6.72;3.50;;;;;;;-6.53;77.32;97579.35;1786938;80;21149;-61
2021/01/29 04:17:35;;;;;;;7.78;3.42;;;;;;;-6.59;77.51;97576.25;1768839;80;21145;-62
2021/01/29 04:20:14;;;;;;;6.25;3.20;;;;;;;-6.60;77.45;97575.95;1785798;80;21145;-61
2021/01/29 04:22:41;;;;;;;7.53;4.17;;;;;;;-6.61;77.81;97575.64;1788749;80;21164;-61
2021/01/29 04:25:26;;;;;;;6.28;3.33;;;;;;;-6.66;77.96;97549.81;1780217;80;21210;-61
2021/01/29 04:27:59;;;;;;;7.70;3.67;;;;;;;-6.68;77.89;97549.73;1760519;80;21556;-62
2021/01/29 04:30:28;;;;;;;9.43;3.90;;;;;;;-6.66;78.15;97563.58;1786798;80;21177;-61
2021/01/29 04:33:10;;;;;;;6.22;3.40;;;;;;;-6.61;78.34;97557.11;1788778;80;21693;-61
2021/01/29 04:35:38;;;;;;;9.40;4.20;;;;;;;-6.53;78.15;97560.82;1767834;80;21558;-61
2021/01/29 04:38:22;;;;;;;14.20;7.20;;;;;;;-6.49;78.04;97555.40;1775268;80;21203;-62
2021/01/29 04:41:12;;;;;;;15.28;7.25;;;;;;;-6.42;77.93;97568.58;1778013;80;21149;-62
2021/01/29 04:44:20;;;;;;;12.95;7.05;;;;;;;-6.39;77.97;97557.03;1762425;80;21165;-63
2021/01/29 04:47:12;;;;;;;12.68;6.42;;;;;;;-6.30;77.95;97558.37;1779426;80;21173;-61
2021/01/29 04:49:54;;;;;;;11.03;6.00;;;;;;;-6.23;77.89;97549.84;1790036;80;21147;-62
2021/01/29 04:53:07;;;;;;;8.85;5.30;;;;;;;-6.18;77.86;97551.85;1723200;81;21177;-62
2021/01/29 04:56:16;;;;;;;9.95;6.03;;;;;;;-6.11;77.84;97555.25;1777503;80;21134;-62
2021/01/29 04:59:25;;;;;;;13.78;6.75;;;;;;;-5.96;77.87;97539.00;1763000;79;22950;-61
2021/01/29 05:02:33;;;;;;;11.30;7.10;;;;;;;-5.95;77.89;97545.93;1722262;83;21192;-60
2021/01/29 05:05:42;;;;;;;13.15;6.67;;;;;;;-5.91;77.79;97537.81;1710543;83;21172;-61
2021/01/29 05:08:56;;;;;;;11.08;6.40;;;;;;;-5.86;77.79;97545.41;1646614;85;21723;-60
2021/01/29 05:11:55;;;;;;;10.75;6.78;;;;;;;-5.77;77.65;97545.36;1662346;84;21595;-61
2021/01/29 05:15:04;;;;;;;16.12;7.42;;;;;;;-5.72;77.44;97546.84;1649090;85;21198;-60
2021/01/29 05:17:47;;;;;;;;;;;;;;;-5.67;77.25;97529.75;1662706;85;21340;-61
2021/01/29 05:21:00;;;;;;;12.25;7.95;;;;;;;-5.64;77.23;97529.84;1683831;84;20424;-60
2021/01/29 05:24:02;;;;;;;11.35;7.47;;;;;;;-5.57;77.31;97531.89;1650793;87;21132;-60
2021/01/29 05:27:12;;;;;;;13.60;8.18;;;;;;;-5.48;77.18;97531.87;1673503;85;21173;-60
2021/01/29 05:30:16;;;;;;;14.10;8.10;;;;;;;-5.38;76.87;97522.05;1675865;85;21149;-61
2021/01/29 05:33:26;;;;;;;12.10;7.92;;;;;;;-5.30;76.66;97531.03;1653990;85;21157;-60
2021/01/29 05:36:16;;;;;;;12.93;8.43;;;;;;;-5.22;76.69;97522.77;1605112;88;21151;-60
2021/01/29 05:39:07;;;;;;;14.50;8.08;;;;;;;-5.14;76.51;97523.78;1624416;87;21730;-60
2021/01/29 05:42:07;;;;;;;13.78;8.08;;;;;;;-5.10;76.62;97524.95;1694053;83;21162;-60
2021/01/29 05:45:12;;;;;;;13.13;8.58;;;;;;;-5.05;76.75;97523.74;1690780;85;21166;-60
2021/01/29 05:48:20;;;;;;;13.95;8.63;;;;;;;-5.03;76.75;97514.52;1665040;85;21184;-60
2021/01/29 05:51:15;;;;;;;14.63;8.90;;;;;;;-5.01;76.89;97511.65;1683708;85;21569;-60
2021/01/29 05:54:16;;;;;;;14.47;8.55;;;;;;;-4.97;76.95;97508.02;1683121;85;21189;-60
2021/01/29 05:57:07;;;;;;;13.13;9.18;;;;;;;-4.99;77.12;97500.83;1668270;84;21296;-61
2021/01/29 06:00:33;;;;;;;18.73;9.70;;;;;;;-4.97;77.28;97503.53;1616110;88;21661;-61
2021/01/29 06:03:16;;;;;;;14.40;9.80;;;;;;;-4.98;77.52;97495.78;1687356;84;21217;-60
2021/01/29 06:06:16;;;;;;;16.57;9.90;;;;;;;-4.99;77.88;97499.50;1693251;84;21169;-61
2021/01/29 06:09:07;;;;;;;13.28;9.38;;;;;;;-4.94;78.10;97504.40;1707526;84;21235;-61
2021/01/29 06:11:58;;;;;;;14.35;10.25;;;;;;;-4.87;78.28;97500.31;1674683;84;21131;-58
2021/01/29 06:15:12;;;;;;;14.70;10.15;;;;;;;-4.87;78.84;97501.64;1694219;84;21554;-59
2021/01/29 06:17:46;;;;;;;16.15;9.98;;;;;;;-4.87;79.31;97505.62;1693179;84;21197;-60
2021/01/29 06:20:48;;;;;;;18.32;11.22;;;;;;;-4.86;79.66;97509.91;1690404;84;21188;-60
2021/01/29 06:23:44;;;;;;;18.12;11.57;;;;;;;-4.87;80.08;97503.78;1697688;84;21169;-61
2021/01/29 06:26:59;;;;;;;17.98;11.28;;;;;;;-4.83;80.34;97501.48;1692710;84;21287;-61
2021/01/29 06:29:58;;;;;;;20.10;11.63;;;;;;;-4.76;80.36;97508.30;1709229;84;21185;-61
2021/01/29 06:33:11;;;;;;;19.05;12.25;;;;;;;-4.73;80.45;97514.99;1692235;84;21181;-60
2021/01/29 06:36:04;;;;;;;20.88;12.45;;;;;;;-4.73;80.44;97514.48;1708744;84;21571;-61
2021/01/29 06:38:55;;;;;;;16.50;11.68;;;;;;;-4.69;80.46;97501.05;1681005;85;21197;-60
2021/01/29 06:41:34;;;;;;;18.55;12.25;;;;;;;-4.64;80.30;97509.11;1675564;85;21327;-60
2021/01/29 06:44:46;;;;;;;19.77;13.43;;;;;;;-4.57;80.16;97510.36;1681555;84;21211;-61
2021/01/29 06:48:08;;;;;;;21.27;13.25;;;;;;;-4.66;80.08;97487.83;1681084;85;21605;-60
2021/01/29 06:51:11;;;;;;;21.55;13.13;;;;;;;-4.55;80.09;97505.10;1681031;85;21720;-60
2021/01/29 06:54:12;;;;;;;17.92;12.20;;;;;;;-4.50;80.14;97503.09;1681155;84;21759;-60
2021/01/29 06:57:00;;;;;;;17.87;12.23;;;;;;;-4.42;80.17;97497.94;1705873;84;21154;-60
2021/01/29 06:59:46;;;;;;;20.15;13.00;;;;;;;-4.40;80.26;97486.58;1709184;84;21130;-61
2021/01/29 07:02:32;;;;;;;23.52;14.03;;;;;;;-4.32;80.12;97495.53;1707610;83;21137;-61
2021/01/29 07:05:14;;;;;;;19.07;12.85;;;;;;;-4.29;80.09;97474.62;1705810;84;21332;-60
2021/01/29 07:08:24;;;;;;;20.48;13.80;;;;;;;-4.21;79.98;97478.75;1697884;84;21166;-61
2021/01/29 07:11:28;;;;;;;22.60;15.30;;;;;;;-4.12;79.87;97477.38;1689351;85;21799;-61
2021/01/29 07:14:24;;;;;;;23.95;15.50;;;;;;;-4.01;79.53;97476.55;1673807;85;21173;-61
2021/01/29 07:17:02;;;;;;;23.35;15.10;;;;;;;-3.95;79.53;97472.14;1662684;85;21561;-61
2021/01/29 07:20:02;;;;;;;18.27;13.67;;;;;;;-3.89;79.55;97473.86;1681136;85;21192;-61
2021/01/29 07:23:10;;;;;;;19.48;13.78;;;;;;;-3.82;79.40;97473.20;1700697;84;21196;-61
2021/01/29 07:26:15;;;;;;;23.50;15.43;;;;;;;-3.81;79.52;97472.98;1708738;84;21644;-62
2021/01/29 07:28:54;;;;;;;24.23;14.05;;;;;;;-3.75;79.49;97469.38;1696638;83;21182;-60
2021/01/29 07:31:43;;;;;;;19.87;13.45;;;;;;;-3.68;79.56;97459.93;1709057;84;21174;-60
2021/01/29 07:34:27;;;;;;;21.12;14.20;;;;;;;-3.64;79.68;97457.90;1709099;83;21193;-61
2021/01/29 07:37:42;;;;;;;22.17;14.53;;;;;;;-3.56;79.77;97450.88;1688487;84;21335;-61
2021/01/29 07:40:28;;;;;;;22.90;14.25;;;;;;;-3.44;79.69;97458.02;1708660;84;21342;-61
2021/01/29 07:43:17;;;;;;;25.25;15.32;;;;;;;-3.36;79.60;97447.78;1709386;84;21336;-60
2021/01/29 07:46:29;;;;;;;22.35;15.08;;;;;;;-3.25;79.53;97451.43;1709459;84;21632;-61
2021/01/29 07:49:22;;;;;;;20.55;14.28;;;;;;;-3.12;79.46;97451.16;1709361;83;21288;-60
2021/01/29 07:52:13;;;;;;;17.98;12.58;;;;;;;-3.05;79.44;97456.58;1707321;83;21146;-62
2021/01/29 07:55:22;;;;;;;19.50;12.23;;;;;;;-2.99;79.64;97458.83;1709290;84;21321;-61
2021/01/29 07:58:23;;;;;;;19.80;13.78;;;;;;;-2.98;79.98;97455.13;1697298;83;21161;-61
2021/01/29 08:01:24;;;;;;;21.33;14.13;;;;;;;-2.93;80.20;97454.38;1715105;83;21577;-63
2021/01/29 08:04:15;;;;;;;21.30;13.90;;;;;;;-2.89;80.28;97451.00;1704072;83;21250;-62
2021/01/29 08:07:17;;;;;;;21.70;13.48;;;;;;;-2.87;80.44;97451.55;1712253;83;21180;-61
2021/01/29 08:09:55;;;;;;;18.98;13.05;;;;;;;-2.82;80.50;97450.32;1689936;83;21186;-61
2021/01/29 08:12:23;;;;;;;17.60;12.20;;;;;;;-2.75;80.58;97446.16;1699492;83;21317;-61
2021/01/29 08:15:15;;;;;;;18.02;13.22;;;;;;;-2.67;80.56;97449.23;1701331;83;21507;-61
2021/01/29 08:18:16;;;;;;;17.87;13.88;;;;;;;-2.62;80.59;97437.31;1709231;83;21169;-60
2021/01/29 08:21:25;;;;;;;18.37;13.35;;;;;;;-2.53;80.51;97437.20;1688600;85;21201;-60
2021/01/29 08:24:29;;;;;;;18.00;12.55;;;;;;;-2.44;80.54;97438.13;1688618;83;21157;-61
2021/01/29 08:27:18;;;;;;;21.02;12.30;;;;;;;-2.36;80.48;97438.50;1688453;84;21735;-61
2021/01/29 08:30:34;;;;;;;19.27;12.27;;;;;;;-2.27;80.33;97429.05;1690585;83;21176;-61
2021/01/29 08:33:24;;;;;;;19.12;13.00;;;;;;;-2.15;80.25;97428.92;1809750;79;23419;-60
2021/01/29 08:36:44;;;;;;;21.70;14.78;;;;;;;-2.15;80.33;97428.92;1756944;81;21160;-61
2021/01/29 08:39:28;;;;;;;29.85;19.45;;;;;;;-2.11;80.48;97436.19;1738124;81;21203;-62
2021/01/29 08:42:44;;;;;;;20.10;14.03;;;;;;;-2.09;80.32;97430.08;1730998;83;21220;-62
2021/01/29 08:45:51;;;;;;;20.45;14.58;;;;;;;-2.05;80.24;97432.53;1730567;83;21212;-62
2021/01/29 08:48:54;;;;;;;16.35;11.78;;;;;;;-2.07;80.59;97437.84;1740478;80;21168;-62
2021/01/29 08:51:32;;;;;;;17.67;13.03;;;;;;;-2.09;80.72;97445.29;1718596;83;21189;-62
2021/01/29 08:54:31;;;;;;;16.23;10.93;;;;;;;-2.12;81.05;97435.09;1668744;84;21280;-63
2021/01/29 08:57:19;;;;;;;12.95;9.78;;;;;;;-2.18;81.34;97439.56;1642988;84;21643;-62
2021/01/29 08:59:47;;;;;;;16.67;11.90;;;;;;;-2.11;81.04;97440.71;1673903;86;21208;-63
2021/01/29 09:02:43;;;;;;;17.27;11.18;;;;;;;-2.13;81.20;97436.17;1696417;84;21107;-63
2021/01/29 09:05:21;;;;;;;13.60;10.13;;;;;;;-2.08;81.13;97432.22;1685042;83;21212;-62
2021/01/29 09:08:05;;;;;;;14.38;9.50;;;;;;;-2.01;80.87;97430.98;1697636;84;21213;-61
2021/01/29 09:11:04;;;;;;;14.75;10.03;;;;;;;-1.90;80.78;97441.25;1693716;84;21319;-61
2021/01/29 09:13:33;;;;;;;14.35;9.68;;;;;;;-1.80;80.50;97433.37;1720687;83;21532;-61
2021/01/29 09:16:17;;;;;;;13.72;10.50;;;;;;;-1.77;80.29;97435.54;1725568;83;21517;-63
2021/01/29 09:18:51;;;;;;;13.15;9.28;;;;;;;-1.73;80.06;97435.33;1707605;83;21206;-63
2021/01/29 09:21:43;;;;;;;15.13;11.03;;;;;;;-1.71;79.96;97430.56;1727529;83;21208;-63
2021/01/29 09:24:40;;;;;;;15.00;9.50;;;;;;;-1.67;79.95;97427.69;1705718;83;21324;-61
2021/01/29 09:27:48;;;;;;;18.35;12.00;;;;;;;-1.61;79.76;97431.20;1697294;83;21183;-60
2021/01/29 09:30:37;;;;;;;18.65;11.33;;;;;;;-1.54;79.80;97433.15;1678791;85;21246;-62
2021/01/29 09:33:24;;;;;;;14.68;9.75;;;;;;;-1.42;79.84;97434.35;1638719;86;21583;-60
2021/01/29 09:36:24;;;;;;;17.52;9.95;;;;;;;-1.27;79.30;97430.48;1686918;83;21300;-61
2021/01/29 09:39:11;;;;;;;16.05;9.83;;;;;;;-1.15;79.03;97421.80;1673675;83;21744;-61
2021/01/29 09:42:03;;;;;;;;;;;;;;;-1.11;78.61;97413.05;1739730;80;21204;-61
2021/01/29 09:44:57;;;;;;;17.17;10.88;;;;;;;-1.01;77.95;97413.66;1746336;82;20261;-61
2021/01/29 09:47:25;;;;;;;16.75;10.78;;;;;;;-0.86;78.01;97412.98;1747068;82;21683;-62
2021/01/29 09:50:05;;;;;;;15.10;9.83;;;;;;;-0.53;77.62;97416.69;1717295;82;21212;-62
2021/01/29 09:53:06;;;;;;;14.65;9.85;;;;;;;-0.28;75.75;97409.36;1716112;83;21311;-61
2021/01/29 09:55:57;;;;;;;14.63;9.88;;;;;;;-0.14;75.31;97414.53;1746318;82;21161;-61
2021/01/29 09:58:43;;;;;;;16.10;10.58;;;;;;;-0.11;74.54;97399.33;1747187;81;21126;-61
2021/01/29 10:01:14;;;;;;;15.70;9.68;;;;;;;-0.02;73.57;97407.11;1714436;82;21181;-61
2021/01/29 10:04:11;;;;;;;15.08;9.83;;;;;;;0.00;73.05;97403.11;1746672;81;21185;-61
2021/01/29 10:06:44;;;;;;;14.85;10.80;;;;;;;-0.02;72.76;97402.57;1705754;84;21154;-60
2021/01/29 10:09:15;;;;;;;13.80;10.15;;;;;;;0.04;73.06;97400.72;1740802;82;21201;-61
2021/01/29 10:12:03;;;;;;;16.25;10.88;;;;;;;0.07;72.81;97404.23;1705875;84;21198;-61
2021/01/29 10:14:41;;;;;;;;;;;;;;;0.11;72.53;97404.52;1721404;82;21189;-61
2021/01/29 10:17:27;;;;;;;13.65;8.23;;;;;;;0.13;72.22;97392.48;1716087;83;20431;-61
2021/01/29 10:19:59;;;;;;;17.57;11.80;;;;;;;-0.03;70.79;97394.27;1716175;83;21690;-61
2021/01/29 10:23:15;;;;;;;16.82;10.65;;;;;;;0.02;71.49;97400.18;1716105;83;21197;-61
2021/01/29 10:26:11;;;;;;;15.23;8.83;;;;;;;0.01;69.94;97397.23;1716000;83;21644;-60
2021/01/29 10:29:04;;;;;;;12.60;7.67;;;;;;;-0.19;64.77;97384.58;1725275;82;21277;-60
2021/01/29 10:32:08;;;;;;;13.03;8.20;;;;;;;-0.39;64.19;97386.34;1705729;84;21348;-60
2021/01/29 10:35:06;;;;;;;13.98;8.00;;;;;;;-0.49;63.08;97388.39;1740787;82;21199;-59
2021/01/29 10:37:59;;;;;;;14.25;7.25;;;;;;;-0.59;61.12;97391.81;1702710;84;21613;-60
2021/01/29 10:40:42;;;;;;;16.75;7.67;;;;;;;-0.65;61.03;97404.06;1740929;82;21190;-60
2021/01/29 10:43:38;;;;;;;14.30;7.67;;;;;;;-0.75;59.32;97387.44;1703467;84;21573;-60
2021/01/29 10:46:27;;;;;;;13.60;7.10;;;;;;;-0.65;59.15;97396.86;1675157;86;21215;-60
2021/01/29 10:49:22;;;;;;;13.10;6.67;;;;;;;-0.55;57.95;97398.78;1742546;82;21178;-60
2021/01/29 10:52:18;;;;;;;11.73;6.20;;;;;;;-0.44;58.05;97392.45;1742324;82;21300;-61
2021/01/29 10:54:47;;;;;;;12.73;7.42;;;;;;;-0.36;57.28;97388.48;1718126;82;21778;-61
2021/01/29 10:57:50;;;;;;;10.78;6.65;;;;;;;-0.22;57.38;97390.97;1717304;82;21153;-61
2021/01/29 11:00:23;;;;;;;11.88;6.85;;;;;;;-0.19;56.70;97385.91;1717420;83;21161;-61
2021/01/29 11:03:05;;;;;;;11.83;6.83;;;;;;;0.00;57.40;97388.95;1730845;82;21173;-61
2021/01/29 11:05:33;;;;;;;12.50;7.33;;;;;;;0.07;57.31;97387.37;1737609;82;21562;-62
2021/01/29 11:08:24;;;;;;;11.38;7.12;;;;;;;0.12;56.92;97391.39;1737540;82;21636;-62
2021/01/29 11:11:02;;;;;;;10.58;6.28;;;;;;;0.14;56.67;97378.05;1734633;82;21177;-61
2021/01/29 11:14:05;;;;;;;11.08;6.72;;;;;;;0.16;56.96;97385.27;1737745;82;21183;-60
2021/01/29 11:17:03;;;;;;;12.20;6.67;;;;;;;0.21;56.86;97385.30;1737563;82;21194;-59
2021/01/29 11:19:42;;;;;;;9.93;5.90;;;;;;;0.22;56.84;97378.86;1737503;82;21178;-60
2021/01/29 11:22:21;;;;;;;10.25;6.78;;;;;;;0.26;56.42;97384.48;1723247;82;21158;-60
2021/01/29 11:25:14;;;;;;;10.53;5.87;;;;;;;0.26;55.94;97377.27;1717635;83;21752;-60
2021/01/29 11:28:04;;;;;;;10.85;6.08;;;;;;;0.20;54.84;97379.66;1715453;83;21749;-60
2021/01/29 11:30:55;;;;;;;10.70;6.50;;;;;;;0.08;53.65;97379.59;1717637;83;21628;-60
2021/01/29 11:33:28;;;;;;;10.82;6.37;;;;;;;0.08;54.99;97370.23;1717350;83;21552;-60
2021/01/29 11:36:35;;;;;;;13.22;7.20;;;;;;;-0.01;53.47;97385.47;1720272;82;21121;-60
2021/01/29 11:39:21;;;;;;;10.32;5.92;;;;;;;-0.01;54.59;97394.02;1747250;81;21218;-59
2021/01/29 11:42:19;;;;;;;11.20;6.78;;;;;;;-0.10;53.61;97387.02;1743682;82;21150;-59
2021/01/29 11:45:09;;;;;;;13.45;7.40;;;;;;;-0.08;54.13;97392.92;1720436;82;21152;-59
2021/01/29 11:48:12;;;;;;;14.63;6.90;;;;;;;-0.10;54.31;97393.70;1747172;82;21181;-60
2021/01/29 11:50:51;;;;;;;10.98;6.65;;;;;;;-0.03;54.50;97402.82;1746647;82;21141;-60
2021/01/29 11:53:35;;;;;;;12.65;7.87;;;;;;;-0.06;53.95;97393.45;1747219;81;21311;-60
2021/01/29 11:56:28;;;;;;;10.80;5.45;;;;;;;-0.01;54.05;97396.70;1726510;82;21542;-60
2021/01/29 11:59:22;;;;;;;17.05;7.78;;;;;;;-0.06;53.06;97388.63;1747339;81;21688;-60
2021/01/29 12:02:01;;;;;;;11.85;7.30;;;;;;;0.06;54.63;97395.12;1812140;77;23545;-58
2021/01/29 12:04:43;;;;;;;10.53;6.35;;;;;;;-0.02;53.86;97393.73;1765547;80;21331;-60
2021/01/29 12:07:49;;;;;;;11.85;6.42;;;;;;;-0.03;53.26;97397.47;1759779;81;21624;-60
2021/01/29 12:10:28;;;;;;;13.05;6.40;;;;;;;-0.07;53.56;97397.72;1758817;81;21185;-60
2021/01/29 12:13:04;;;;;;;11.65;6.80;;;;;;;-0.04;54.52;97386.52;1757324;81;21327;-59
2021/01/29 12:16:01;;;;;;;10.60;6.47;;;;;;;-0.03;54.02;97394.27;1757595;81;21334;-60
2021/01/29 12:18:31;;;;;;;12.33;7.75;;;;;;;-0.06;54.01;97396.66;1757276;81;21327;-59
2021/01/29 12:21:25;;;;;;;13.62;7.85;;;;;;;-0.10;54.00;97403.59;1771087;80;21165;-60
2021/01/29 12:24:21;;;;;;;16.62;8.23;;;;;;;-0.10;54.55;97403.06;1723817;83;21199;-60
2021/01/29 12:27:12;;;;;;;14.73;8.13;;;;;;;-0.16;54.73;97397.42;1615907;88;21240;-60
2021/01/29 12:30:10;;;;;;;14.18;8.40;;;;;;;-0.13;55.33;97389.41;1689830;83;21322;-59
2021/01/29 12:32:49;;;;;;;16.15;9.53;;;;;;;-0.09;55.15;97395.84;1724023;83;21197;-59
2021/01/29 12:35:25;;;;;;;15.05;9.50;;;;;;;-0.09;55.79;97400.66;1698210;84;21175;-59
2021/01/29 12:38:24;;;;;;;18.05;10.20;;;;;;;-0.07;55.85;97397.72;1724003;83;21630;-60
2021/01/29 12:41:14;;;;;;;16.67;9.83;;;;;;;-0.05;55.78;97395.60;1725860;82;21336;-59
2021/01/29 12:44:11;;;;;;;17.27;10.78;;;;;;;-0.04;55.89;97400.67;1724110;82;21210;-60
2021/01/29 12:46:44;;;;;;;16.82;10.25;;;;;;;-0.02;56.63;97411.13;1723936;83;21327;-60
2021/01/29 12:49:40;;;;;;;17.57;9.25;;;;;;;-0.01;56.09;97408.73;1724014;83;21335;-60
2021/01/29 12:52:33;;;;;;;16.45;10.18;;;;;;;0.02;55.99;97410.07;1723418;83;21224;-60
2021/01/29 12:55:31;;;;;;;16.02;9.08;;;;;;;0.03;56.11;97407.68;1723936;83;21353;-60
2021/01/29 12:58:06;;;;;;;17.42;9.25;;;;;;;-0.03;55.36;97415.67;1724011;83;21146;-60
2021/01/29 13:00:38;;;;;;;15.45;9.15;;;;;;;-0.03;55.97;97408.17;1746123;82;21222;-60
2021/01/29 13:03:23;;;;;;;15.83;8.90;;;;;;;-0.02;55.80;97412.46;1652872;85;21717;-60
2021/01/29 13:06:34;;;;;;;15.95;9.45;;;;;;;0.03;55.77;97403.14;1735165;83;21178;-60
2021/01/29 13:09:44;;;;;;;16.93;9.93;;;;;;;0.02;55.91;97406.88;1675439;84;21190;-60
2021/01/29 13:12:43;;;;;;;15.75;8.88;;;;;;;0.12;56.11;97404.23;1711926;83;21130;-60
2021/01/29 13:15:33;;;;;;;14.93;9.68;;;;;;;0.23;55.95;97397.86;1705414;84;21155;-59